Terminal Aerodrome Forecast
Issued by NWS

Home | Current Version | Previous Version | Text Only | Print | Product List | Glossary On
Versions: 1 2 3 4 5 6 7 8 9 10 11 12
504
FTUS45 KRIW 232325
TAFBPI
TAF
KBPI 232325Z 2400/2424 34012G20KT P6SM SCT070
     FM240300 VRB06KT P6SM FEW080
     FM241500 24008KT P6SM SCT080
     FM241800 27020G30KT P6SM VCTS SCT060 BKN100CB=

USA.gov is the U.S. government's official web portal to all federal, state and local government web resources and services.